AirNav   ATP
 
 1051 users online  

D42 Springfield Municipal Airport
Springfield, Minnesota, USA

GOING TO SPRINGFIELD?


FAA INFORMATION EFFECTIVE 21 JUNE 2018

Location

FAA Identifier: D42
Lat/Long: 44-13-51.8000N / 094-59-56.1000W
44-13.863333N / 094-59.935000W
44.2310556 / -94.9989167
(estimated)
Elevation: 1073 ft. / 327.1 m (surveyed)
Variation: 02E (2015)
From city: 1 mile SW of SPRINGFIELD, MN
Time zone: UTC -5 (UTC -6 during Standard Time)
Zip code: 56087

Airport Operations

Airport use: Open to the public
Control tower: no
ARTCC: MINNEAPOLIS CENTER
FSS: PRINCETON FLIGHT SERVICE STATION
NOTAMs facility: PNM (NOTAM-D service available)
Attendance: UNATNDD
FOR SVC CALL 507-723-3500.
Wind indicator: lighted
Segmented circle: no
Lights: MIRL SS-SR, ACTVT MIRL RWY 13/31, REIL RWY 13/31, AND PAPI RWY 13/31 - CTAF.
Beacon: white-green (lighted land airport)
Operates sunset to sunrise.

Airport Communications

CTAF/UNICOM: 122.8
WX ASOS at RWF (19 nm N): 126.575 (507-644-3564)
WX AWOS-3 at MWM (20 nm S): 118.525 (507-831-1833)
  • APCH/DEP SVC PRVDD BY MINNEAPOLIS ARTCC ON FREQS 127.1/290.2 (REDWOOD FALLS RCAG).

Nearby radio navigation aids

VOR radial/distance  VOR name  Freq  Var
RWFr152/15.2REDWOOD FALLS VOR/DME113.3007E
MMLr105/37.8MARSHALL VOR/DME111.0005E

 
NDB name  Hdg/Dist  Freq  Var  ID
ST JAMES306/24.226001EJYG .--- -.-- --.

Airport Services

Fuel available: 100LL
SELF SERVE FUEL AVBL WITH CREDIT CARD 24 HRS.
Parking: hangars and tiedowns
Airframe service: NONE
Powerplant service: NONE
Bottled oxygen: NONE
Bulk oxygen: NONE

Runway Information

Runway 13/31

Dimensions: 3402 x 75 ft. / 1037 x 23 m
Surface: asphalt, in good condition
Weight bearing capacity: 
Single wheel: 12.0
Runway edge lights: medium intensity
NO CAUTION ZONE LIGHTING PRESENT FOR LAST HALF OF RWY IN BOTH DIRECTIONS
RUNWAY 13  RUNWAY 31
Latitude: 44-14.050798N44-13.676655N
Longitude: 095-00.225210W094-59.645990W
Elevation: 1070.5 ft.1067.4 ft.
Gradient: 0.2%0.2%
Traffic pattern: rightleft
Runway heading: 130 magnetic, 132 true310 magnetic, 312 true
Markings: nonprecision, in good conditionnonprecision, in good condition
Visual slope indicator: 2-light PAPI on left (3.00 degrees glide path)2-light PAPI on left (3.00 degrees glide path)
Runway end identifier lights: yesyes
Touchdown point: yes, no lightsyes, no lights
Obstructions: none16 ft. tree, 527 ft. from runway, 71 ft. right of centerline, 20:1 slope to clear

Airport Ownership and Management from official FAA records

Ownership: Publicly-owned
Owner: CITY OF SPRINGFIELD
2 E CENTRAL ST
SPRINGFIELD, MN 56087
Phone 507-723-3500
Manager: MATT SKARET
2 E CENTRAL ST
SPRINGFIELD, MN 56087
Phone 507-723-3500

Airport Operational Statistics

Aircraft based on the field: 3
Single engine airplanes: 3
    
Aircraft operations: avg 46/week *
83% local general aviation
17% transient general aviation
* for 12-month period ending 30 April 2017

Additional Remarks

ULTRALIGHT TRAFFIC ON & INVOF ARPT.

Instrument Procedures

NOTE: All procedures below are presented as PDF files. If you need a reader for these files, you should download the free Adobe Reader.

NOT FOR NAVIGATION. Please procure official charts for flight.
FAA instrument procedures published for use from 21 June 2018 at 0901Z to 19 July 2018 at 0900Z.

 
IAPs - Instrument Approach Procedures
RNAV (GPS) RWY 13   download (187KB)
RNAV (GPS) RWY 31   download (169KB)
VOR/DME RWY 13   download (163KB)
NOTE: Special Take-Off Minimums/Departure Procedures apply   download (152KB)

Other nearby airports with instrument procedures:

KRWF - Redwood Falls Municipal Airport (19 nm N)
KMWM - Windom Municipal Airport (20 nm S)
KULM - New Ulm Municipal Airport (22 nm E)
KJYG - St James Municipal Airport (24 nm SE)
KTKC - Tracy Municipal Airport (26 nm W)
 
Loc | Ops | Rwys | IFR | FBO | Links
Com | Nav | Svcs | Stats | Notes


 
Area around D42 (Springfield Municipal Airport)
 
Road maps at: MapQuest Bing Google
 
Aerial photo
WARNING: Photo may not be current or correct
Aerial photo of D42 (Springfield Municipal Airport)
Photo by Mark Griffith
Photo taken 14-Jul-2011
at 3000 feet from a Piper Archer II. Looking north.

Do you have a better or more recent aerial photo of Springfield Municipal Airport that you would like to share? If so, please send us your photo.

 
Sectional chart

 
Airport distance calculator
Flying to Springfield Municipal Airport? Find the distance to fly.

From to D42

Sunrise and sunset
Times for 15-Jul-2018
 Local
(UTC-5)
 Zulu
(UTC)
Morning civil twilight05:1610:16
Sunrise05:5110:51
Sunset21:0102:01
Evening civil twilight21:3602:36

Current date and time
Zulu (UTC)  15-Jul-2018 21:31:12
Local (UTC-5)  15-Jul-2018 16:31:12
 
METAR
KRWF 
19nm N 
152053Z AUTO 30011G17KT 10SM CLR 26/20 A3002 RMK AO2 SLP159 T02610200 53005
KMWM 
20nm S 
152115Z AUTO 32016KT 10SM SCT049 25/23 A3003 RMK AO2
KULM 
22nm E 
152115Z AUTO 32013G22KT 10SM SCT024 SCT040 SCT050 26/20 A3000 RMK AO2
KJYG 
24nm SE 
152115Z AUTO 29006KT 10SM CLR 29/18 A3000 RMK AO2
KTKC 
26nm W 
152116Z AUTO 33009KT 10SM CLR 25/19 A3004 RMK AO2 T02450193
KOVL 
33nm N 
152115Z AUTO 32012KT 10SM CLR 25/20 A3003 RMK AO2
KMJQ 
36nm S 
152115Z AUTO 33005KT 10SM CLR 28/18 A3002 RMK AO2
KDVP 
37nm SW 
152114Z AUTO 34014G19KT 5SM +RA BKN042 23/18 A3006 RMK AO2 T02310184
KMML 
37nm W 
152115Z AUTO 34013G17KT 10SM FEW002 23/18 A3006 RMK AO2
TAF
KRWF 
19nm N 
151720Z 1518/1618 32010G18KT P6SM SCT040 BKN200 FM152100 33010KT P6SM SCT030 BKN100 FM152300 33008KT P6SM SCT100 BKN200 FM160900 29005KT P6SM SKC
NOTAMs
Click for the latest NOTAMs
NOTAMs are issued by the DoD/FAA and will open in a separate window not controlled by AirNav.

 

 
 

FBO, Fuel Providers, and Aircraft Ground Support

  
 Business Name 
 
 Contact 
 
 Services / Description 
 
Fuel Prices
 
Comments
  
Springfield Municipal Airport 507-723-3512
no information available

If you are affiliated with Springfield Municipal Airport and would like to show here your services, contact info, web link, logo, and more, click here
100LL
SS $4.21 
 Updated 17-Nov-2015
 
   write
SS=Self service
Update Fuel Prices
 

Would you like to see your business listed on this page?

 If your business provides an interesting product or service to pilots, flight crews, aircraft, or users of the Springfield Municipal Airport, you should consider listing it here.  To start the listing process, click on the button below
 
Add a business
 

Other Pages about Springfield Municipal Airport

Update a link
 
Copyright © AirNav, LLC. All rights reserved. Privacy Policy  Contact